الصفحة الرئيسية
METAR-TAF:

METAR-TAF

مطار :

دوشنبه, طاجيكستان

مطار دوشانبي الدولي

دائرة عرض: 38-33N, خط طول: 068-47E, ارتفاع: 803 متر

مراقبة الطقس الحالي

تاريخ ووقت الإصدار 25 دقيقة قبل الساعة 15:30UTC
ريح 4 عقدة من الشمال/الشمال الشرقي
درجة الحرارة 20°درجة مئوية
الرطوبة 40%
ضغط 1017 hPa
الرؤية 10 كم أو أكثر

METAR: UTDD 221530Z 02002MPS 9999 NSC 20/06 Q1017 R09/D NOSIG RMK QFE694/0926

زمن: 20:55 (15:55 UTC)

توقعات

تاريخ ووقت الإصدار 55 دقيقة قبل الساعة 15:00UTC
التوقعات صالحة من22 الساعة 16 UTC إلى 23 الساعة 04 UTC
ريح 4 عقدةمن اتجاهات متغيرة
الرؤية: 8000 متر
غيوم متفرقة على ارتفاع 6600 قدم, مزنة ركامية.
غيوم مفككة على ارتفاع 10000 قدم
نظرية الاحتمالات 40% :
مؤقت
من 22 الساعة 16 UTC إلى 23 الساعة 04 UTC
عاصفة رعدية

TAF: UTDD 221500Z 2216/2304 VRB02MPS 8000 SCT066CB BKN100 PROB40 TEMPO 2216/2304 TS

أرصاد الطقس والتوقعات من أكثر من 4000 مطار (تقارير الطقس للمطار METAR والتنبؤ بالطقس بالمطارTAF).

المحطات المتاحة هي النقط الصفراء والحمراء على الخريطة.

حرك المؤشر فوق النقطة لمعرفة اسم المحطة.

ثم انقر لمعرفة أرصاد وتوقعات الطقس.

لتغيير الخارطة: اضغط على الأزرار الخضراء مع رمز الصليب الأسود للتكبير. على الزر الأخضر مع شرطة للتصغير، أو على الأسهم الخضراء للخرائط المجاورة.


METAR-TAF: